Time;durP1;ratioP1;P1;durP2;ratioP2;P2;SDS_P1;SDS_P2;PMS_P1;PMS_P2;Temp;Humidity;BMP_temperature;BMP_pressure;BME280_temperature;BME280_humidity;BME280_pressure;Samples;Min_cycle;Max_cycle;Signal;HPM_P1;HPM_P2
2022/06/16 00:00:47;;;;;;;;;;;;;;;16.98;56.03;100475.38;5036361;28;20083;-89
2022/06/16 00:03:12;;;;;;;3.35;1.40;;;;;;;16.85;56.58;100488.53;5054721;28;19916;-86
2022/06/16 00:05:41;;;;;;;14.50;2.15;;;;;;;16.83;56.49;100493.63;5053253;28;20039;-89
2022/06/16 00:08:08;;;;;;;6.95;2.05;;;;;;;16.85;56.26;100485.78;5053121;28;20025;-87
2022/06/16 00:10:34;;;;;;;4.60;2.13;;;;;;;16.81;56.34;100495.94;5053976;28;20032;-89
2022/06/16 00:12:59;;;;;;;4.57;1.90;;;;;;;16.66;56.61;100488.56;5053208;28;20037;-88
2022/06/16 00:15:27;;;;;;;3.17;1.67;;;;;;;16.58;56.77;100473.09;5053534;28;20399;-87
2022/06/16 00:17:54;;;;;;;7.28;1.95;;;;;;;16.59;56.87;100471.94;5054710;28;20430;-87
2022/06/16 00:20:20;;;;;;;5.00;2.30;;;;;;;16.60;56.84;100473.53;5057080;28;20032;-87
2022/06/16 00:22:45;;;;;;;6.50;2.20;;;;;;;16.70;56.52;100479.25;5056554;28;20107;-88
2022/06/16 00:25:11;;;;;;;3.47;1.63;;;;;;;16.72;56.03;100470.63;5056830;28;20047;-89
2022/06/16 00:27:37;;;;;;;;;;;;;;;16.72;56.29;100476.94;5057074;28;20040;-88
2022/06/16 00:30:04;;;;;;;4.18;2.00;;;;;;;16.48;57.18;100477.28;5035994;28;19971;-86
2022/06/16 00:32:29;;;;;;;3.95;1.98;;;;;;;16.46;57.10;100479.56;5036513;28;20068;-86
2022/06/16 00:34:56;;;;;;;4.07;1.45;;;;;;;16.34;57.18;100480.56;5036710;28;20472;-87
2022/06/16 00:37:24;;;;;;;4.35;1.98;;;;;;;16.23;57.26;100483.09;5036565;28;20053;-87
2022/06/16 00:39:50;;;;;;;4.30;2.10;;;;;;;16.23;57.29;100477.59;5035557;28;20107;-86
2022/06/16 00:42:21;;;;;;;3.95;1.67;;;;;;;16.35;56.79;100478.59;5039097;28;20433;-86
2022/06/16 00:44:52;;;;;;;7.10;2.22;;;;;;;16.39;56.76;100469.25;5038620;28;20140;-88
2022/06/16 00:47:25;;;;;;;3.47;1.65;;;;;;;16.25;56.78;100471.72;5037153;28;20052;-86
2022/06/16 00:49:53;;;;;;;4.72;1.90;;;;;;;16.13;57.04;100477.41;5037789;28;20446;-89
2022/06/16 00:52:23;;;;;;;5.20;2.20;;;;;;;16.11;56.90;100485.97;5036441;28;20029;-88
2022/06/16 00:54:58;;;;;;;3.97;1.77;;;;;;;16.07;56.69;100487.09;5037689;28;20115;-90
2022/06/16 00:57:31;;;;;;;4.13;1.90;;;;;;;16.06;56.76;100491.00;5037284;28;20033;-88
2022/06/16 00:59:58;;;;;;;7.40;2.17;;;;;;;16.10;56.72;100500.88;5036435;28;20042;-86
2022/06/16 01:02:26;;;;;;;3.05;1.33;;;;;;;16.10;56.49;100489.09;5036093;28;20546;-87
2022/06/16 01:04:51;;;;;;;6.40;1.95;;;;;;;16.10;56.33;100475.38;5035982;28;20033;-85
2022/06/16 01:07:22;;;;;;;4.63;2.10;;;;;;;15.95;55.57;100477.81;5036857;28;20032;-88
2022/06/16 01:09:48;;;;;;;4.97;1.70;;;;;;;15.83;55.59;100475.25;5035837;28;20037;-86
2022/06/16 01:15:52;;;;;;;4.35;1.60;;;;;;;15.86;55.40;100469.03;5036764;28;20479;-85
2022/06/16 01:18:42;;;;;;;4.78;1.67;;;;;;;15.93;55.53;100474.66;5036089;28;20029;-86
2022/06/16 01:21:20;;;;;;;4.13;2.10;;;;;;;15.92;55.55;100473.06;5036294;28;20061;-85
2022/06/16 01:24:06;;;;;;;4.13;1.65;;;;;;;15.94;55.30;100475.44;5036014;28;20384;-86
2022/06/16 01:26:42;;;;;;;6.32;2.40;;;;;;;15.70;55.95;100471.03;5036176;28;20080;-86
2022/06/16 01:29:16;;;;;;;4.27;1.50;;;;;;;15.86;55.59;100477.25;5036907;28;20128;-86
2022/06/16 01:31:51;;;;;;;4.43;1.73;;;;;;;15.80;55.26;100481.47;5055267;28;20041;-86
2022/06/16 01:34:41;;;;;;;10.27;1.70;;;;;;;15.75;55.37;100476.25;5042449;28;20118;-86
2022/06/16 01:37:30;;;;;;;5.13;1.60;;;;;;;15.71;55.29;100477.34;5058980;28;20555;-85
2022/06/16 01:40:02;;;;;;;4.03;1.45;;;;;;;15.60;55.35;100482.59;5061351;28;20116;-86
2022/06/16 01:42:30;;;;;;;4.20;1.52;;;;;;;15.57;55.14;100497.78;5061219;28;20033;-85
2022/06/16 01:45:07;;;;;;;3.65;1.48;;;;;;;15.59;55.06;100492.75;5061242;28;20037;-84
2022/06/16 01:47:36;;;;;;;5.72;1.73;;;;;;;15.49;55.35;100492.53;5042101;28;20128;-84
2022/06/16 01:50:09;;;;;;;3.63;1.60;;;;;;;15.48;55.19;100490.94;5057500;28;20064;-86
2022/06/16 01:52:39;;;;;;;4.35;1.90;;;;;;;15.51;55.08;100487.47;5056940;28;20418;-88
2022/06/16 01:55:13;;;;;;;3.58;1.50;;;;;;;15.56;54.85;100496.22;5038871;28;20026;-87
2022/06/16 01:57:44;;;;;;;4.57;2.03;;;;;;;15.66;54.66;100496.84;5055167;28;20036;-86
2022/06/16 02:00:26;;;;;;;3.20;1.30;;;;;;;15.57;54.78;100494.25;5055587;28;20079;-85
2022/06/16 02:03:01;;;;;;;5.18;1.45;;;;;;;15.55;54.97;100500.09;5055042;28;20041;-84
2022/06/16 02:05:35;;;;;;;5.53;1.80;;;;;;;15.56;55.47;100503.66;5037049;28;20120;-84
2022/06/16 02:08:08;;;;;;;6.90;2.13;;;;;;;15.45;55.59;100503.44;5055324;28;20025;-84
2022/06/16 02:10:39;;;;;;;3.78;1.40;;;;;;;15.52;55.34;100517.28;5055122;28;20029;-86
2022/06/16 02:13:08;;;;;;;3.78;1.60;;;;;;;15.47;55.45;100516.78;5057015;28;20028;-87
2022/06/16 02:15:48;;;;;;;5.57;2.03;;;;;;;15.49;55.41;100511.72;5055129;28;20025;-85
2022/06/16 02:18:26;;;;;;;4.30;1.70;;;;;;;15.49;55.05;100509.78;5055411;28;20033;-84
2022/06/16 02:21:17;;;;;;;7.18;1.83;;;;;;;15.52;54.87;100505.53;5055731;28;20081;-86
2022/06/16 02:23:44;;;;;;;4.00;1.48;;;;;;;15.63;54.40;100504.63;5054667;28;20041;-85
2022/06/16 02:26:10;;;;;;;3.22;1.20;;;;;;;15.67;54.34;100498.44;5037641;28;20079;-84
2022/06/16 02:28:48;;;;;;;3.15;1.27;;;;;;;15.41;54.38;100512.72;5055414;28;20033;-84
2022/06/16 02:31:25;;;;;;;3.65;1.50;;;;;;;15.30;54.68;100507.00;5053869;28;20100;-82
2022/06/16 02:34:00;;;;;;;3.42;1.58;;;;;;;15.35;54.38;100503.97;5053881;28;20029;-83
2022/06/16 02:36:37;;;;;;;3.60;1.48;;;;;;;15.46;54.19;100504.22;5054727;28;20037;-84
2022/06/16 02:39:23;;;;;;;4.13;1.52;;;;;;;15.45;53.97;100508.91;5059500;28;20511;-83
2022/06/16 02:42:26;;;;;;;2.67;1.27;;;;;;;15.50;53.76;100507.84;5063948;28;20064;-84
2022/06/16 02:45:34;;;;;;;3.53;1.50;;;;;;;15.43;53.83;100511.19;5065915;28;20064;-84
2022/06/16 02:48:04;;;;;;;4.43;1.50;;;;;;;15.34;54.03;100502.38;5062807;28;20025;-84
2022/06/16 02:50:53;;;;;;;4.20;1.63;;;;;;;15.20;54.20;100497.34;5047392;28;20136;-84
2022/06/16 02:53:46;;;;;;;5.88;1.48;;;;;;;15.21;54.74;100503.63;5057434;28;20033;-84
2022/06/16 02:56:27;;;;;;;3.80;1.55;;;;;;;15.13;55.00;100502.69;5054514;28;20064;-84
2022/06/16 02:58:57;;;;;;;3.33;1.30;;;;;;;15.17;54.66;100509.03;5054002;28;20177;-83
2022/06/16 03:01:24;;;;;;;6.10;1.85;;;;;;;15.30;54.32;100507.00;5053494;28;20029;-83
2022/06/16 03:04:10;;;;;;;5.00;2.03;;;;;;;15.19;54.40;100506.75;5053543;28;20107;-84
2022/06/16 03:06:36;;;;;;;2.90;1.48;;;;;;;15.18;54.62;100502.41;5053551;28;20125;-85
2022/06/16 03:09:02;;;;;;;2.78;1.30;;;;;;;15.09;54.61;100510.00;5035548;28;20379;-83
2022/06/16 03:11:27;;;;;;;3.83;1.50;;;;;;;15.14;54.24;100498.78;5052753;28;20106;-83
2022/06/16 03:13:53;;;;;;;4.35;1.50;;;;;;;15.20;54.46;100497.34;5053874;28;20033;-85
2022/06/16 03:16:19;;;;;;;;;;;;;;;15.31;54.09;100494.88;5053141;28;20033;-83
2022/06/16 03:18:45;;;;;;;4.82;1.33;;;;;;;15.30;54.02;100502.31;5053140;28;19913;-83
2022/06/16 03:21:10;;;;;;;5.90;1.73;;;;;;;15.27;54.13;100513.97;5034824;28;20399;-82
2022/06/16 03:23:35;;;;;;;3.40;1.27;;;;;;;15.23;54.26;100518.59;5052893;28;20108;-81
2022/06/16 03:26:01;;;;;;;2.67;1.30;;;;;;;15.16;54.79;100534.88;5053254;28;20264;-84
2022/06/16 03:28:27;;;;;;;4.70;1.55;;;;;;;15.12;54.75;100531.25;5053024;28;20037;-83
2022/06/16 03:30:52;;;;;;;4.05;1.50;;;;;;;15.03;55.02;100541.59;5052912;28;20049;-85
2022/06/16 03:33:18;;;;;;;3.20;1.30;;;;;;;15.08;54.79;100543.28;5035165;28;20037;-84
2022/06/16 03:35:44;;;;;;;;;;;;;;;14.98;54.94;100545.41;5053883;28;20100;-83
2022/06/16 03:40:55;;;;;;;4.07;1.40;;;;;;;14.85;55.54;100552.13;5053280;28;20110;-83
2022/06/16 03:43:20;;;;;;;6.25;1.60;;;;;;;14.85;55.51;100549.38;5053622;28;20448;-83
2022/06/16 03:45:46;;;;;;;4.85;2.10;;;;;;;14.81;55.69;100553.19;5053387;28;20041;-83
2022/06/16 03:48:12;;;;;;;5.35;1.58;;;;;;;14.81;55.84;100559.47;5054515;28;20386;-86
2022/06/16 03:50:38;;;;;;;4.20;1.70;;;;;;;14.78;56.07;100562.91;5058302;28;20351;-86
2022/06/16 03:53:03;;;;;;;3.50;1.60;;;;;;;14.80;56.08;100570.78;5061852;28;20025;-85
2022/06/16 03:55:28;;;;;;;4.07;2.05;;;;;;;14.65;56.80;100578.63;5057697;28;20304;-84
2022/06/16 03:57:54;;;;;;;3.08;1.45;;;;;;;14.77;56.80;100579.69;5057711;28;20047;-83
2022/06/16 04:00:22;;;;;;;4.45;1.52;;;;;;;14.94;56.68;100591.13;5057824;28;20453;-85
2022/06/16 04:03:59;;;;;;;5.25;1.75;;;;;;;15.12;55.92;100586.13;5057845;28;20036;-86
2022/06/16 04:05:34;;;;;;;2.85;1.23;;;;;;;14.81;56.46;100591.56;5060391;28;20483;-87
2022/06/16 04:07:59;;;;;;;3.33;1.38;;;;;;;14.70;56.65;100594.00;5058693;28;20041;-86
2022/06/16 04:10:25;;;;;;;;;;;;;;;14.78;55.97;100593.06;5057344;28;20100;-85
2022/06/16 04:12:50;;;;;;;5.95;1.52;;;;;;;14.54;56.88;100585.75;5056543;28;19912;-84
2022/06/16 04:15:15;;;;;;;3.97;1.23;;;;;;;14.56;56.59;100575.25;5056405;28;20108;-85
2022/06/16 04:17:40;;;;;;;3.43;1.47;;;;;;;14.50;56.03;100562.94;5057774;28;20053;-84
2022/06/16 04:20:12;;;;;;;5.00;1.40;;;;;;;14.50;56.46;100573.13;5038791;28;20318;-87
2022/06/16 04:22:38;;;;;;;3.83;1.35;;;;;;;14.41;56.75;100570.47;5056691;28;20275;-83
2022/06/16 04:25:05;;;;;;;;;;;;;;;14.21;57.37;100576.97;5038876;28;20025;-84
2022/06/16 04:27:30;;;;;;;5.47;1.40;;;;;;;14.52;56.08;100584.50;5056426;28;20244;-84
2022/06/16 04:29:55;;;;;;;3.13;1.38;;;;;;;14.47;56.48;100584.78;5056567;28;20076;-83
2022/06/16 04:32:21;;;;;;;2.45;1.10;;;;;;;14.41;55.92;100586.91;5056727;28;20497;-82
2022/06/16 04:34:46;;;;;;;3.95;1.38;;;;;;;14.29;55.89;100593.25;5056058;28;20036;-82
2022/06/16 04:37:12;;;;;;;4.28;1.15;;;;;;;14.32;55.96;100583.56;5055969;28;20054;-81
2022/06/16 04:39:37;;;;;;;2.85;1.20;;;;;;;14.29;55.91;100587.00;5055724;28;20033;-82
2022/06/16 04:42:04;;;;;;;4.53;1.20;;;;;;;14.25;55.82;100586.06;5056106;28;20044;-81
2022/06/16 04:44:31;;;;;;;5.60;1.48;;;;;;;14.22;56.05;100589.50;5037927;28;20051;-81
2022/06/16 04:46:57;;;;;;;4.35;1.20;;;;;;;14.30;56.05;100580.38;5055482;28;20029;-81
2022/06/16 04:49:22;;;;;;;3.40;1.50;;;;;;;14.42;55.80;100588.50;5055346;28;20051;-80
2022/06/16 04:51:47;;;;;;;3.37;1.30;;;;;;;14.48;55.78;100591.84;5055294;28;20036;-81
2022/06/16 04:54:16;;;;;;;3.38;1.33;;;;;;;14.61;55.14;100596.94;5055567;28;20252;-80
2022/06/16 04:56:41;;;;;;;3.13;1.23;;;;;;;14.70;55.06;100602.25;5055687;28;20048;-81
2022/06/16 04:59:06;;;;;;;3.58;1.52;;;;;;;14.61;55.07;100605.16;5055990;28;20029;-80
2022/06/16 05:01:32;;;;;;;3.27;1.30;;;;;;;14.66;55.18;100621.34;5055098;28;20033;-80
2022/06/16 05:03:57;;;;;;;3.20;1.23;;;;;;;14.61;55.25;100623.50;5054539;28;20595;-81
2022/06/16 05:06:22;;;;;;;3.17;0.95;;;;;;;14.48;55.11;100619.25;5060186;28;20033;-86
2022/06/16 05:08:48;;;;;;;5.03;1.58;;;;;;;14.65;54.57;100629.91;5060637;28;20033;-85
2022/06/16 05:11:14;;;;;;;3.00;1.30;;;;;;;14.74;54.84;100628.59;5039095;28;20055;-84
2022/06/16 05:13:40;;;;;;;3.50;1.23;;;;;;;14.88;54.75;100633.66;5057926;28;20029;-85
2022/06/16 05:16:06;;;;;;;5.18;1.17;;;;;;;14.79;55.03;100640.47;5056720;28;20087;-85
2022/06/16 05:18:31;;;;;;;2.80;0.98;;;;;;;14.82;54.75;100646.03;5056824;28;20037;-86
2022/06/16 05:21:04;;;;;;;;;;;;;;;14.94;54.33;100647.91;5056092;28;20032;-83
2022/06/16 05:23:29;;;;;;;4.85;1.25;;;;;;;14.84;54.20;100646.50;5055667;28;19936;-85
2022/06/16 05:25:54;;;;;;;4.10;1.00;;;;;;;15.00;53.98;100647.31;5055598;28;20033;-85
2022/06/16 05:28:20;;;;;;;3.08;1.17;;;;;;;14.96;54.31;100642.91;5058248;28;20172;-85
2022/06/16 05:30:46;;;;;;;3.30;0.93;;;;;;;14.96;54.65;100651.91;5059460;28;20551;-85
2022/06/16 05:33:20;;;;;;;3.95;1.27;;;;;;;14.90;54.46;100658.78;5057611;28;20036;-85
2022/06/16 05:36:00;;;;;;;5.28;1.50;;;;;;;14.99;54.30;100656.69;5055574;28;20075;-84
2022/06/16 05:38:26;;;;;;;4.00;1.20;;;;;;;14.98;54.60;100660.59;5055357;28;20391;-85
2022/06/16 05:40:56;;;;;;;3.03;1.15;;;;;;;14.93;54.64;100658.06;5056475;28;20115;-84
2022/06/16 05:43:21;;;;;;;2.63;1.17;;;;;;;15.16;54.05;100661.06;5055682;28;20075;-84
2022/06/16 05:45:47;;;;;;;7.95;1.70;;;;;;;15.26;53.97;100657.78;5059459;28;20029;-85
2022/06/16 05:48:12;;;;;;;4.10;1.77;;;;;;;15.14;53.93;100657.06;5063698;28;20095;-85
2022/06/16 05:50:37;;;;;;;3.00;1.23;;;;;;;15.10;54.41;100667.94;5063498;28;20274;-85
2022/06/16 05:53:03;;;;;;;2.95;1.35;;;;;;;14.97;54.58;100669.16;5060403;28;20310;-85
2022/06/16 05:55:28;;;;;;;3.40;1.42;;;;;;;15.02;54.32;100674.38;5060123;28;20037;-85
2022/06/16 05:57:53;;;;;;;;;;;;;;;15.07;54.60;100665.91;5056657;28;20139;-85
2022/06/16 06:00:19;;;;;;;6.93;1.33;;;;;;;15.03;54.62;100662.28;5056492;28;20287;-84
2022/06/16 06:02:44;;;;;;;2.70;1.20;;;;;;;15.01;54.89;100667.31;5054277;28;20298;-83
2022/06/16 06:05:11;;;;;;;2.78;1.20;;;;;;;15.33;54.25;100666.19;5053878;28;20044;-84
2022/06/16 06:18:36;;;;;;;5.75;1.70;;;;;;;15.77;53.37;100688.06;5054908;28;20036;-86
2022/06/16 06:21:01;;;;;;;3.75;1.33;;;;;;;15.72;53.80;100693.84;5055155;28;20025;-84
2022/06/16 06:23:26;;;;;;;2.88;1.10;;;;;;;15.78;53.78;100694.38;5054703;28;20033;-83
2022/06/16 06:25:53;;;;;;;;;;;;;;;15.92;53.30;100700.19;5055305;28;20048;-85
2022/06/16 06:28:21;;;;;;;4.25;1.30;;;;;;;15.82;54.05;100712.53;5036739;28;19909;-84
2022/06/16 06:30:46;;;;;;;3.28;1.42;;;;;;;15.69;54.55;100704.75;5054420;28;20049;-85
2022/06/16 06:33:11;;;;;;;2.30;1.05;;;;;;;16.14;53.52;100720.75;5054265;28;20047;-84
2022/06/16 06:35:37;;;;;;;;;;;;;;;16.63;52.12;100717.47;5054447;28;20463;-85
2022/06/16 06:38:03;;;;;;;3.78;1.30;;;;;;;17.50;49.87;100719.59;5056391;28;19963;-85
2022/06/16 06:40:32;;;;;;;2.92;1.25;;;;;;;18.11;48.33;100723.34;5056702;28;20025;-87
2022/06/16 06:42:57;;;;;;;3.90;1.20;;;;;;;18.45;47.22;100715.97;5059501;28;20056;-88
2022/06/16 06:45:23;;;;;;;;;;;;;;;17.93;48.51;100718.38;5057760;28;20029;-85
2022/06/16 06:47:48;;;;;;;3.85;1.35;;;;;;;18.43;47.47;100721.06;5045147;28;19939;-87
2022/06/16 06:50:19;;;;;;;;;;;;;;;18.99;46.50;100711.97;5070765;28;20084;-87
2022/06/16 06:52:45;;;;;;;3.58;1.30;;;;;;;19.66;44.64;100711.88;5070742;28;19950;-85
2022/06/16 06:55:10;;;;;;;3.20;1.17;;;;;;;19.74;44.32;100708.78;5068556;28;20471;-87
2022/06/16 06:57:35;;;;;;;;;;;;;;;19.91;43.74;100712.84;5051953;28;20093;-87
2022/06/16 07:00:01;;;;;;;3.93;1.17;;;;;;;19.68;44.02;100712.28;5132209;22;19983;-88
2022/06/16 07:02:27;;;;;;;2.92;1.08;;;;;;;20.72;42.13;100712.56;5074914;28;20295;-88
2022/06/16 07:04:53;;;;;;;4.03;1.30;;;;;;;20.06;43.66;100709.00;5080052;28;20032;-86
2022/06/16 07:07:22;;;;;;;3.40;1.30;;;;;;;20.40;42.95;100708.81;5108559;22;20061;-86
2022/06/16 07:09:47;;;;;;;4.15;1.20;;;;;;;20.54;42.92;100719.19;5084193;28;20037;-87
2022/06/16 07:12:13;;;;;;;2.85;1.00;;;;;;;21.03;41.23;100726.91;5075658;28;20040;-87
2022/06/16 07:14:49;;;;;;;3.47;1.25;;;;;;;20.88;41.41;100728.03;5079138;28;20066;-87
2022/06/16 07:17:19;;;;;;;3.55;1.20;;;;;;;19.91;43.44;100723.91;5074750;28;20025;-85
2022/06/16 07:19:45;;;;;;;3.30;1.10;;;;;;;20.54;42.70;100727.50;5073361;28;20033;-87
2022/06/16 07:22:10;;;;;;;2.60;1.00;;;;;;;20.13;44.44;100730.38;5055842;28;20416;-84
2022/06/16 07:24:36;;;;;;;2.67;1.05;;;;;;;20.68;43.28;100733.09;5074351;28;20033;-89
2022/06/16 07:27:02;;;;;;;3.38;1.23;;;;;;;20.85;42.66;100732.41;5078188;28;20029;-88
2022/06/16 07:29:28;;;;;;;3.33;1.42;;;;;;;19.85;44.33;100736.50;5073641;28;20089;-85
2022/06/16 07:31:54;;;;;;;2.05;0.95;;;;;;;19.58;45.00;100741.38;5054884;28;20032;-87
2022/06/16 07:34:19;;;;;;;4.45;1.42;;;;;;;19.42;45.34;100738.84;5072885;28;20033;-85
2022/06/16 07:36:44;;;;;;;;;;;;;;;18.89;47.14;100735.50;5073508;28;20025;-87
2022/06/16 07:39:10;;;;;;;3.97;1.23;;;;;;;18.55;46.92;100748.41;5055468;28;20242;-87
2022/06/16 07:41:37;;;;;;;;;;;;;;;18.61;47.61;100749.69;5073968;28;20056;-88
2022/06/16 07:44:10;;;;;;;3.03;0.87;;;;;;;18.28;48.44;100753.94;5056026;28;19908;-87
2022/06/16 07:46:39;;;;;;;3.20;1.00;;;;;;;18.56;46.76;100750.00;5073619;28;20024;-86
2022/06/16 07:49:05;;;;;;;2.35;1.05;;;;;;;18.90;46.45;100757.19;5073209;28;20029;-87
2022/06/16 07:51:32;;;;;;;5.88;1.40;;;;;;;18.50;47.27;100766.09;5073145;28;20040;-86
2022/06/16 07:53:58;;;;;;;2.65;1.13;;;;;;;18.72;47.02;100764.44;5074488;28;20493;-87
2022/06/16 07:56:23;;;;;;;2.58;1.08;;;;;;;18.97;47.23;100773.03;5079145;28;20024;-87
2022/06/16 07:58:49;;;;;;;;;;;;;;;19.07;47.27;100791.69;5057847;28;20046;-82
2022/06/16 08:01:15;;;;;;;3.25;1.30;;;;;;;19.21;47.23;100777.28;5073630;28;20381;-90
2022/06/16 08:06:22;;;;;;;2.15;0.85;;;;;;;19.09;45.82;100785.78;5316910;22;19924;-92
2022/06/16 08:08:49;;;;;;;2.67;0.90;;;;;;;19.17;44.82;100790.25;5208354;22;20052;-91
2022/06/16 08:13:59;;;;;;;2.63;1.05;;;;;;;18.78;44.87;100785.00;5364719;22;20120;-90
2022/06/16 08:16:27;;;;;;;2.35;1.00;;;;;;;19.18;44.13;100791.84;5339638;22;21230;-87
2022/06/16 08:18:52;;;;;;;2.13;0.90;;;;;;;19.08;44.42;100795.25;5133825;22;20066;-91
2022/06/16 08:21:18;;;;;;;2.10;0.82;;;;;;;19.10;45.27;100798.41;5077171;28;20222;-88
2022/06/16 08:23:43;;;;;;;;;;;;;;;19.13;43.60;100797.66;5360039;22;20056;-89
2022/06/16 08:26:10;;;;;;;2.90;0.90;;;;;;;19.07;42.61;100793.66;5087072;28;20028;-92
2022/06/16 08:28:38;;;;;;;1.67;0.77;;;;;;;19.23;42.95;100794.25;5086364;28;20266;-89
2022/06/16 08:31:04;;;;;;;1.33;0.70;;;;;;;19.48;41.79;100794.50;5557871;22;20049;-90
2022/06/16 08:33:30;;;;;;;3.65;0.98;;;;;;;19.33;41.50;100801.88;5325518;22;21162;-89
2022/06/16 08:35:55;;;;;;;1.40;0.60;;;;;;;19.42;41.20;100787.75;5764298;22;20039;-86
2022/06/16 08:38:20;;;;;;;3.22;1.08;;;;;;;19.47;40.36;100799.22;5149586;22;20033;-91
2022/06/16 08:40:47;;;;;;;;;;;;;;;19.49;39.95;100801.66;5159031;22;20101;-90
2022/06/16 08:54:10;;;;;;;1.20;0.63;;;;;;;19.34;40.50;100808.97;5122446;22;20379;-82
2022/06/16 08:57:05;;;;;;;1.17;0.50;;;;;;;19.41;39.67;100809.03;5092101;28;20020;-89
2022/06/16 08:59:49;;;;;;;1.77;0.70;;;;;;;19.79;39.60;100812.63;5533220;22;20080;-88
2022/06/16 09:02:57;;;;;;;1.90;0.70;;;;;;;19.83;39.00;100814.25;5087479;28;20033;-89
2022/06/16 09:05:46;;;;;;;2.85;0.60;;;;;;;19.72;39.31;100818.88;5070248;28;20025;-87
2022/06/16 09:08:20;;;;;;;1.67;0.60;;;;;;;19.65;39.98;100813.28;5045865;28;20048;-86
2022/06/16 09:10:55;;;;;;;2.70;0.75;;;;;;;19.70;39.62;100820.44;5059494;28;20391;-87
2022/06/16 09:15:51;;;;;;;1.92;0.70;;;;;;;19.92;38.17;100811.16;5350962;22;20059;-84
2022/06/16 09:18:25;;;;;;;8.50;1.00;;;;;;;19.80;38.99;100805.91;5085205;28;20040;-90
2022/06/16 09:21:02;;;;;;;1.02;0.60;;;;;;;20.12;39.11;100806.97;5162499;22;20171;-89
2022/06/16 09:23:50;;;;;;;1.23;0.55;;;;;;;20.45;38.92;100810.03;5117433;22;20059;-87
2022/06/16 09:26:49;;;;;;;2.70;1.05;;;;;;;20.56;36.96;100808.94;5059179;28;20124;-87
2022/06/16 09:29:28;;;;;;;2.17;0.80;;;;;;;20.41;37.28;100815.53;5062750;28;20041;-89
2022/06/16 09:34:25;;;;;;;1.83;0.40;;;;;;;20.47;37.33;100822.28;5186555;22;20048;-88
2022/06/16 09:45:11;;;;;;;2.03;0.50;;;;;;;20.59;36.02;100846.88;5156878;22;20033;-90
2022/06/16 09:47:52;;;;;;;1.30;0.80;;;;;;;20.78;35.55;100856.09;5532470;22;20048;-90
2022/06/16 09:50:47;;;;;;;0.93;0.50;;;;;;;20.68;36.59;100847.34;5064487;28;20037;-86
2022/06/16 09:53:32;;;;;;;1.30;0.50;;;;;;;20.61;36.14;100847.28;5081125;28;20055;-88
2022/06/16 09:56:07;;;;;;;1.77;0.50;;;;;;;20.60;35.88;100855.97;5233545;22;20068;-86
2022/06/16 10:03:46;;;;;;;1.92;0.90;;;;;;;20.87;35.52;100865.66;5249420;22;20044;-88
2022/06/16 10:09:16;;;;;;;1.77;0.63;;;;;;;21.46;35.45;100868.31;5227315;22;20045;-92
2022/06/16 10:11:50;;;;;;;2.20;0.65;;;;;;;21.43;35.35;100863.56;5070124;28;20027;-90
2022/06/16 10:14:47;;;;;;;1.50;0.60;;;;;;;21.24;36.04;100859.94;5066220;28;20039;-88
2022/06/16 10:17:20;;;;;;;2.70;0.70;;;;;;;20.80;36.61;100867.56;5062709;28;20028;-91
2022/06/16 10:19:47;;;;;;;1.83;0.60;;;;;;;21.36;36.09;100861.56;5338348;22;20059;-91
2022/06/16 10:22:16;;;;;;;1.55;0.65;;;;;;;21.66;36.18;100857.69;5147599;22;20071;-93
2022/06/16 10:24:49;;;;;;;2.20;0.77;;;;;;;21.80;36.04;100872.38;5043921;28;20077;-87
2022/06/16 10:27:16;;;;;;;1.10;0.60;;;;;;;21.42;36.25;100878.59;5036683;28;20111;-84
2022/06/16 10:29:57;;;;;;;1.88;0.75;;;;;;;21.99;35.68;100873.97;5053349;28;20033;-81
2022/06/16 10:32:37;;;;;;;2.00;0.77;;;;;;;21.87;35.91;100877.94;5053286;28;20105;-83
2022/06/16 10:35:04;;;;;;;2.13;1.00;;;;;;;21.63;36.28;100879.47;5053359;28;20119;-81
2022/06/16 10:37:30;;;;;;;2.80;0.70;;;;;;;22.13;36.11;100878.78;5053338;28;20040;-83
2022/06/16 10:40:05;;;;;;;2.58;0.75;;;;;;;22.05;36.91;100878.00;5054190;28;20025;-83
2022/06/16 10:42:43;;;;;;;2.38;0.70;;;;;;;21.98;36.16;100888.25;5035626;28;20102;-83
2022/06/16 10:45:27;;;;;;;1.75;0.68;;;;;;;22.19;36.01;100893.88;5053388;28;20071;-81
2022/06/16 10:48:05;;;;;;;2.65;1.00;;;;;;;22.03;36.10;100907.28;5053460;28;20032;-83
2022/06/16 10:50:40;;;;;;;3.17;1.00;;;;;;;21.97;36.25;100903.28;5054063;28;20025;-83
2022/06/16 10:53:26;;;;;;;1.77;0.83;;;;;;;21.70;37.12;100903.66;5054753;28;20029;-83
2022/06/16 10:56:01;;;;;;;2.78;0.70;;;;;;;22.25;36.40;100892.28;5053947;28;20045;-85
2022/06/16 10:58:30;;;;;;;2.88;1.05;;;;;;;22.03;37.24;100885.09;5053898;28;20064;-83
2022/06/16 11:01:08;;;;;;;2.78;0.90;;;;;;;22.66;36.63;100887.09;5037860;28;20332;-85
2022/06/16 11:03:42;;;;;;;2.72;1.08;;;;;;;22.94;35.34;100882.72;5055891;28;20040;-83
2022/06/16 11:06:08;;;;;;;3.08;1.00;;;;;;;22.71;35.60;100885.94;5054367;28;20352;-79
2022/06/16 11:08:38;;;;;;;2.15;0.75;;;;;;;22.69;35.74;100886.34;5052257;28;20079;-83
2022/06/16 11:11:04;;;;;;;2.08;0.80;;;;;;;22.46;35.93;100885.94;5052888;28;20043;-80
2022/06/16 11:13:37;;;;;;;3.00;1.02;;;;;;;22.43;37.29;100875.63;5052532;28;20391;-81
2022/06/16 11:16:22;;;;;;;2.42;0.88;;;;;;;22.96;35.46;100883.13;5052829;28;20029;-79
2022/06/16 11:18:51;;;;;;;2.30;0.98;;;;;;;22.98;35.35;100873.19;5052639;28;20032;-81
2022/06/16 11:21:24;;;;;;;3.28;0.98;;;;;;;22.98;35.27;100866.84;5053414;28;20450;-82
2022/06/16 11:23:54;;;;;;;3.42;1.00;;;;;;;22.71;35.59;100872.06;5054910;28;20056;-81
2022/06/16 11:26:32;;;;;;;3.92;1.20;;;;;;;22.87;35.92;100877.22;5052801;28;20482;-85
2022/06/16 11:29:04;;;;;;;4.25;0.80;;;;;;;22.91;35.20;100872.44;5052604;28;20032;-79
2022/06/16 11:31:42;;;;;;;1.63;0.73;;;;;;;23.19;35.04;100877.91;5052625;28;20037;-80
2022/06/16 11:34:24;;;;;;;1.55;0.75;;;;;;;23.11;35.45;100873.56;5052752;28;20380;-82
2022/06/16 11:37:09;;;;;;;2.13;1.00;;;;;;;23.16;35.40;100861.22;5051430;28;20115;-83
2022/06/16 11:40:03;;;;;;;1.92;0.95;;;;;;;23.14;35.60;100855.28;5052757;28;20490;-83
2022/06/16 11:42:59;;;;;;;2.22;0.90;;;;;;;22.88;35.58;100865.69;5052574;28;20375;-79
2022/06/16 11:45:45;;;;;;;3.10;1.42;;;;;;;23.20;36.01;100862.03;5052322;28;20086;-79
2022/06/16 11:48:26;;;;;;;2.25;0.88;;;;;;;23.15;35.11;100876.31;5051076;28;20025;-79
2022/06/16 11:50:57;;;;;;;2.63;1.10;;;;;;;22.92;35.06;100874.81;5052120;28;20032;-80
2022/06/16 11:53:25;;;;;;;3.15;1.05;;;;;;;22.82;35.70;100858.94;5052037;28;20029;-83
2022/06/16 11:56:24;;;;;;;2.60;1.10;;;;;;;23.03;35.60;100861.69;5052106;28;20177;-82
2022/06/16 11:59:27;;;;;;;1.90;0.85;;;;;;;23.28;35.51;100869.13;5046351;28;20491;-85
2022/06/16 12:02:17;;;;;;;2.30;1.13;;;;;;;23.43;34.28;100873.44;5052683;28;20079;-81
2022/06/16 12:05:07;;;;;;;2.60;1.00;;;;;;;23.40;34.89;100865.91;5052208;28;20470;-82
2022/06/16 12:07:51;;;;;;;2.38;0.90;;;;;;;23.66;34.50;100872.94;5050914;28;20037;-81
2022/06/16 12:10:39;;;;;;;1.98;0.90;;;;;;;24.01;34.21;100869.16;5052238;28;20021;-80
2022/06/16 12:13:23;;;;;;;1.95;0.90;;;;;;;23.81;34.34;100876.44;5050584;28;20024;-81
2022/06/16 12:15:59;;;;;;;2.03;0.93;;;;;;;23.94;34.20;100872.00;5056272;28;20029;-82
2022/06/16 12:18:41;;;;;;;2.47;0.98;;;;;;;23.91;33.49;100884.72;5056027;28;20086;-82
2022/06/16 12:21:25;;;;;;;2.95;1.15;;;;;;;23.92;33.73;100879.94;5054622;28;20041;-80
2022/06/16 12:23:56;;;;;;;3.10;0.80;;;;;;;24.57;32.79;100864.38;5055902;28;20574;-82
2022/06/16 12:26:32;;;;;;;2.13;0.98;;;;;;;24.18;33.52;100862.66;5056220;28;20029;-83
2022/06/16 12:29:11;;;;;;;1.85;0.88;;;;;;;24.20;34.25;100854.72;5054891;28;20047;-82
2022/06/16 12:32:09;;;;;;;4.25;1.05;;;;;;;24.39;33.44;100858.16;5056343;28;20033;-86
2022/06/16 12:35:05;;;;;;;1.88;0.70;;;;;;;24.38;32.90;100856.59;5055643;28;20368;-82
2022/06/16 12:37:38;;;;;;;1.67;0.73;;;;;;;24.92;32.49;100851.28;5056014;28;20024;-83
2022/06/16 12:40:09;;;;;;;2.08;0.90;;;;;;;25.16;32.25;100842.66;5055801;28;20025;-85
2022/06/16 12:42:39;;;;;;;4.20;1.08;;;;;;;25.63;31.57;100840.03;5055554;28;20036;-84
2022/06/16 12:45:07;;;;;;;2.58;0.90;;;;;;;25.25;31.96;100853.31;5055481;28;20555;-82